Terminal Aerodrome Forecast
Issued by NWS Louisville, KY

Home | Current Version | Previous Version | Text Only | Print | Product List | Glossary On
Versions: 1 2 3 4 5 6 7 8 9 10 11 12 13 14 15 16 17 18
000
FTUS43 KLMK 192300
TAFBWG
TAF
KBWG 192327Z 2000/2024 20005KT P6SM SCT050
     FM200100 21005KT P6SM VCTS SCT035CB BKN100
     FM200600 VRB03KT 5SM BR SCT250
      TEMPO 2010/2012 2SM BR
     FM201400 26007KT P6SM SCT050=

USA.gov is the U.S. government's official web portal to all federal, state and local government web resources and services.